sensor_id;sensor_type;location;lat;lon;timestamp;temperature;humidity
35746;DHT22;21870;42.812;74.628;2023-07-20T00:02:16;24.30;92.20
35746;DHT22;21870;42.812;74.628;2023-07-20T00:04:42;24.30;92.50
35746;DHT22;21870;42.812;74.628;2023-07-20T00:07:08;24.30;92.60
35746;DHT22;21870;42.812;74.628;2023-07-20T00:09:34;24.30;92.70
35746;DHT22;21870;42.812;74.628;2023-07-20T00:12:00;24.30;92.80
35746;DHT22;21870;42.812;74.628;2023-07-20T00:14:26;24.30;92.60
35746;DHT22;21870;42.812;74.628;2023-07-20T00:16:54;24.30;92.50
35746;DHT22;21870;42.812;74.628;2023-07-20T00:19:25;24.20;92.60
35746;DHT22;21870;42.812;74.628;2023-07-20T00:21:52;24.20;92.50
35746;DHT22;21870;42.812;74.628;2023-07-20T00:24:18;24.20;92.60
35746;DHT22;21870;42.812;74.628;2023-07-20T00:26:44;24.10;92.70
35746;DHT22;21870;42.812;74.628;2023-07-20T00:29:11;24.10;92.70
35746;DHT22;21870;42.812;74.628;2023-07-20T00:31:37;24.10;92.70
35746;DHT22;21870;42.812;74.628;2023-07-20T00:34:03;24.10;92.80
35746;DHT22;21870;42.812;74.628;2023-07-20T00:36:29;24.00;92.50
35746;DHT22;21870;42.812;74.628;2023-07-20T00:38:56;24.00;92.70
35746;DHT22;21870;42.812;74.628;2023-07-20T00:41:22;24.00;92.70
35746;DHT22;21870;42.812;74.628;2023-07-20T00:43:48;24.00;92.80
35746;DHT22;21870;42.812;74.628;2023-07-20T00:46:14;24.00;93.20
35746;DHT22;21870;42.812;74.628;2023-07-20T00:48:41;24.00;93.70
35746;DHT22;21870;42.812;74.628;2023-07-20T00:51:08;24.00;93.60
35746;DHT22;21870;42.812;74.628;2023-07-20T00:53:34;24.00;93.70
35746;DHT22;21870;42.812;74.628;2023-07-20T00:56:01;24.00;93.80
35746;DHT22;21870;42.812;74.628;2023-07-20T00:58:27;24.00;94.20
35746;DHT22;21870;42.812;74.628;2023-07-20T01:00:53;24.00;94.10
35746;DHT22;21870;42.812;74.628;2023-07-20T01:03:20;24.00;94.20
35746;DHT22;21870;42.812;74.628;2023-07-20T01:08:27;24.00;94.70
35746;DHT22;21870;42.812;74.628;2023-07-20T01:13:58;23.90;95.20
35746;DHT22;21870;42.812;74.628;2023-07-20T01:16:24;23.90;95.40
35746;DHT22;21870;42.812;74.628;2023-07-20T01:18:50;23.90;95.50
35746;DHT22;21870;42.812;74.628;2023-07-20T01:21:45;24.00;95.60
35746;DHT22;21870;42.812;74.628;2023-07-20T01:27:59;24.10;95.70
35746;DHT22;21870;42.812;74.628;2023-07-20T01:33:41;24.30;96.60
35746;DHT22;21870;42.812;74.628;2023-07-20T01:36:08;24.40;96.00
35746;DHT22;21870;42.812;74.628;2023-07-20T01:38:37;24.40;96.00
35746;DHT22;21870;42.812;74.628;2023-07-20T01:41:03;24.50;96.30
35746;DHT22;21870;42.812;74.628;2023-07-20T01:43:29;24.60;96.20
35746;DHT22;21870;42.812;74.628;2023-07-20T01:45:55;24.60;96.10
35746;DHT22;21870;42.812;74.628;2023-07-20T01:48:22;24.70;95.80
35746;DHT22;21870;42.812;74.628;2023-07-20T01:50:48;24.70;96.10
35746;DHT22;21870;42.812;74.628;2023-07-20T01:53:14;24.70;96.00
35746;DHT22;21870;42.812;74.628;2023-07-20T01:55:40;24.70;96.70
35746;DHT22;21870;42.812;74.628;2023-07-20T01:58:06;24.80;96.20
35746;DHT22;21870;42.812;74.628;2023-07-20T02:00:32;24.90;96.40
35746;DHT22;21870;42.812;74.628;2023-07-20T02:02:58;24.90;96.20
35746;DHT22;21870;42.812;74.628;2023-07-20T02:05:24;25.00;96.50
35746;DHT22;21870;42.812;74.628;2023-07-20T02:07:51;25.10;96.10
35746;DHT22;21870;42.812;74.628;2023-07-20T02:10:17;25.20;95.50
35746;DHT22;21870;42.812;74.628;2023-07-20T02:12:43;25.30;95.10
35746;DHT22;21870;42.812;74.628;2023-07-20T02:15:10;25.50;95.30
35746;DHT22;21870;42.812;74.628;2023-07-20T02:17:36;25.60;95.40
35746;DHT22;21870;42.812;74.628;2023-07-20T02:20:03;25.70;95.10
35746;DHT22;21870;42.812;74.628;2023-07-20T02:22:29;25.70;94.90
35746;DHT22;21870;42.812;74.628;2023-07-20T02:24:55;25.80;94.40
35746;DHT22;21870;42.812;74.628;2023-07-20T02:27:21;26.00;94.10
35746;DHT22;21870;42.812;74.628;2023-07-20T02:29:47;26.10;94.20
35746;DHT22;21870;42.812;74.628;2023-07-20T02:32:13;26.20;94.30
35746;DHT22;21870;42.812;74.628;2023-07-20T02:34:39;26.40;93.50
35746;DHT22;21870;42.812;74.628;2023-07-20T02:37:06;26.50;93.50
35746;DHT22;21870;42.812;74.628;2023-07-20T02:39:32;26.50;94.20
35746;DHT22;21870;42.812;74.628;2023-07-20T02:41:58;26.60;93.90
35746;DHT22;21870;42.812;74.628;2023-07-20T02:44:24;26.60;93.60
35746;DHT22;21870;42.812;74.628;2023-07-20T02:46:50;26.70;93.40
35746;DHT22;21870;42.812;74.628;2023-07-20T02:49:16;26.80;93.10
35746;DHT22;21870;42.812;74.628;2023-07-20T02:51:42;26.80;93.10
35746;DHT22;21870;42.812;74.628;2023-07-20T02:54:08;27.00;92.60
35746;DHT22;21870;42.812;74.628;2023-07-20T02:56:34;27.00;93.00
35746;DHT22;21870;42.812;74.628;2023-07-20T02:59:01;27.00;93.30
35746;DHT22;21870;42.812;74.628;2023-07-20T03:01:28;27.20;92.90
35746;DHT22;21870;42.812;74.628;2023-07-20T03:03:55;27.40;92.20
35746;DHT22;21870;42.812;74.628;2023-07-20T03:06:21;27.40;92.60
35746;DHT22;21870;42.812;74.628;2023-07-20T03:08:50;27.30;92.70
35746;DHT22;21870;42.812;74.628;2023-07-20T03:11:19;27.40;92.30
35746;DHT22;21870;42.812;74.628;2023-07-20T03:13:46;27.40;92.80
35746;DHT22;21870;42.812;74.628;2023-07-20T03:16:14;27.50;92.70
35746;DHT22;21870;42.812;74.628;2023-07-20T03:18:41;27.60;92.90
35746;DHT22;21870;42.812;74.628;2023-07-20T03:21:08;27.70;92.00
35746;DHT22;21870;42.812;74.628;2023-07-20T03:23:37;27.70;92.50
35746;DHT22;21870;42.812;74.628;2023-07-20T03:26:03;27.80;92.70
35746;DHT22;21870;42.812;74.628;2023-07-20T03:28:30;27.80;92.20
35746;DHT22;21870;42.812;74.628;2023-07-20T03:30:56;27.90;92.70
35746;DHT22;21870;42.812;74.628;2023-07-20T03:33:27;28.10;92.00
35746;DHT22;21870;42.812;74.628;2023-07-20T03:35:54;28.20;92.00
35746;DHT22;21870;42.812;74.628;2023-07-20T03:38:21;28.30;91.30
35746;DHT22;21870;42.812;74.628;2023-07-20T03:41:00;28.30;91.30
35746;DHT22;21870;42.812;74.628;2023-07-20T03:43:27;28.30;91.10
35746;DHT22;21870;42.812;74.628;2023-07-20T03:45:54;28.30;91.50
35746;DHT22;21870;42.812;74.628;2023-07-20T03:48:22;28.30;91.30
35746;DHT22;21870;42.812;74.628;2023-07-20T03:50:50;28.40;91.30
35746;DHT22;21870;42.812;74.628;2023-07-20T03:53:19;28.60;92.00
35746;DHT22;21870;42.812;74.628;2023-07-20T03:55:47;28.60;91.20
35746;DHT22;21870;42.812;74.628;2023-07-20T03:58:14;28.70;90.70
35746;DHT22;21870;42.812;74.628;2023-07-20T04:00:46;28.80;91.90
35746;DHT22;21870;42.812;74.628;2023-07-20T04:03:13;28.90;91.50
35746;DHT22;21870;42.812;74.628;2023-07-20T04:05:39;29.00;91.80
35746;DHT22;21870;42.812;74.628;2023-07-20T04:08:05;29.20;91.20
35746;DHT22;21870;42.812;74.628;2023-07-20T04:10:31;29.20;90.50
35746;DHT22;21870;42.812;74.628;2023-07-20T04:13:01;29.40;91.60
35746;DHT22;21870;42.812;74.628;2023-07-20T04:15:27;29.40;90.80
35746;DHT22;21870;42.812;74.628;2023-07-20T04:17:53;29.50;90.50
35746;DHT22;21870;42.812;74.628;2023-07-20T04:20:19;29.70;91.10
35746;DHT22;21870;42.812;74.628;2023-07-20T04:22:45;29.80;91.10
35746;DHT22;21870;42.812;74.628;2023-07-20T04:25:11;29.80;90.60
35746;DHT22;21870;42.812;74.628;2023-07-20T04:27:37;29.90;89.40
35746;DHT22;21870;42.812;74.628;2023-07-20T04:30:03;29.90;90.40
35746;DHT22;21870;42.812;74.628;2023-07-20T04:32:30;30.10;90.60
35746;DHT22;21870;42.812;74.628;2023-07-20T04:34:59;30.10;90.90
35746;DHT22;21870;42.812;74.628;2023-07-20T04:37:25;30.20;90.60
35746;DHT22;21870;42.812;74.628;2023-07-20T04:39:51;30.40;90.20
35746;DHT22;21870;42.812;74.628;2023-07-20T04:42:17;30.50;89.10
35746;DHT22;21870;42.812;74.628;2023-07-20T04:44:43;30.60;89.20
35746;DHT22;21870;42.812;74.628;2023-07-20T04:47:10;30.60;90.20
35746;DHT22;21870;42.812;74.628;2023-07-20T04:49:36;30.60;89.60
35746;DHT22;21870;42.812;74.628;2023-07-20T04:52:02;30.70;90.00
35746;DHT22;21870;42.812;74.628;2023-07-20T04:54:28;30.90;90.50
35746;DHT22;21870;42.812;74.628;2023-07-20T04:56:54;30.90;87.70
35746;DHT22;21870;42.812;74.628;2023-07-20T04:59:20;30.90;89.60
35746;DHT22;21870;42.812;74.628;2023-07-20T05:01:47;30.80;89.40
35746;DHT22;21870;42.812;74.628;2023-07-20T05:04:13;30.90;90.10
35746;DHT22;21870;42.812;74.628;2023-07-20T05:06:39;31.10;87.80
35746;DHT22;21870;42.812;74.628;2023-07-20T05:09:05;31.10;88.80
35746;DHT22;21870;42.812;74.628;2023-07-20T05:11:32;31.10;88.10
35746;DHT22;21870;42.812;74.628;2023-07-20T05:13:58;31.20;88.10
35746;DHT22;21870;42.812;74.628;2023-07-20T05:16:24;31.30;86.90
35746;DHT22;21870;42.812;74.628;2023-07-20T05:18:50;31.30;87.10
35746;DHT22;21870;42.812;74.628;2023-07-20T05:21:16;31.50;86.70
35746;DHT22;21870;42.812;74.628;2023-07-20T05:23:42;31.50;87.40
35746;DHT22;21870;42.812;74.628;2023-07-20T05:26:09;31.50;88.40
35746;DHT22;21870;42.812;74.628;2023-07-20T05:28:35;31.50;87.60
35746;DHT22;21870;42.812;74.628;2023-07-20T05:31:05;31.30;88.20
35746;DHT22;21870;42.812;74.628;2023-07-20T05:33:32;31.50;85.90
35746;DHT22;21870;42.812;74.628;2023-07-20T05:35:58;31.60;85.60
35746;DHT22;21870;42.812;74.628;2023-07-20T05:38:24;31.50;87.40
35746;DHT22;21870;42.812;74.628;2023-07-20T05:40:50;31.50;86.00
35746;DHT22;21870;42.812;74.628;2023-07-20T05:43:16;31.60;86.50
35746;DHT22;21870;42.812;74.628;2023-07-20T05:45:43;31.60;87.70
35746;DHT22;21870;42.812;74.628;2023-07-20T05:48:10;31.60;88.80
35746;DHT22;21870;42.812;74.628;2023-07-20T05:50:38;31.70;87.30
35746;DHT22;21870;42.812;74.628;2023-07-20T05:53:07;31.80;87.00
35746;DHT22;21870;42.812;74.628;2023-07-20T05:55:33;31.80;86.80
35746;DHT22;21870;42.812;74.628;2023-07-20T05:57:59;31.90;87.80
35746;DHT22;21870;42.812;74.628;2023-07-20T06:00:26;32.00;85.50
35746;DHT22;21870;42.812;74.628;2023-07-20T06:02:53;32.20;87.50
35746;DHT22;21870;42.812;74.628;2023-07-20T06:05:23;32.00;86.40
35746;DHT22;21870;42.812;74.628;2023-07-20T06:07:50;31.90;88.90
35746;DHT22;21870;42.812;74.628;2023-07-20T06:10:16;32.00;87.30
35746;DHT22;21870;42.812;74.628;2023-07-20T06:12:42;32.10;87.90
35746;DHT22;21870;42.812;74.628;2023-07-20T06:15:28;32.20;88.20
35746;DHT22;21870;42.812;74.628;2023-07-20T06:17:55;32.60;88.40
35746;DHT22;21870;42.812;74.628;2023-07-20T06:20:24;32.60;87.10
35746;DHT22;21870;42.812;74.628;2023-07-20T06:22:50;32.40;88.40
35746;DHT22;21870;42.812;74.628;2023-07-20T06:25:16;32.60;87.40
35746;DHT22;21870;42.812;74.628;2023-07-20T06:27:43;32.60;88.40
35746;DHT22;21870;42.812;74.628;2023-07-20T06:30:10;32.60;85.60
35746;DHT22;21870;42.812;74.628;2023-07-20T06:32:36;32.70;88.90
35746;DHT22;21870;42.812;74.628;2023-07-20T06:35:02;32.70;87.60
35746;DHT22;21870;42.812;74.628;2023-07-20T06:37:28;32.70;87.20
35746;DHT22;21870;42.812;74.628;2023-07-20T06:39:55;32.70;87.00
35746;DHT22;21870;42.812;74.628;2023-07-20T06:42:21;32.60;90.50
35746;DHT22;21870;42.812;74.628;2023-07-20T06:44:47;32.70;90.10
35746;DHT22;21870;42.812;74.628;2023-07-20T06:47:13;32.80;89.10
35746;DHT22;21870;42.812;74.628;2023-07-20T06:49:39;32.90;88.90
35746;DHT22;21870;42.812;74.628;2023-07-20T06:52:06;33.00;87.10
35746;DHT22;21870;42.812;74.628;2023-07-20T06:54:32;33.00;87.30
35746;DHT22;21870;42.812;74.628;2023-07-20T06:56:58;33.00;86.40
35746;DHT22;21870;42.812;74.628;2023-07-20T06:59:24;33.00;86.20
35746;DHT22;21870;42.812;74.628;2023-07-20T07:01:50;33.10;85.90
35746;DHT22;21870;42.812;74.628;2023-07-20T07:04:16;33.00;87.90
35746;DHT22;21870;42.812;74.628;2023-07-20T07:06:42;33.10;87.20
35746;DHT22;21870;42.812;74.628;2023-07-20T07:09:09;33.20;86.00
35746;DHT22;21870;42.812;74.628;2023-07-20T07:11:35;33.30;87.30
35746;DHT22;21870;42.812;74.628;2023-07-20T07:14:01;33.20;87.10
35746;DHT22;21870;42.812;74.628;2023-07-20T07:16:27;33.10;86.80
35746;DHT22;21870;42.812;74.628;2023-07-20T07:18:53;33.10;88.00
35746;DHT22;21870;42.812;74.628;2023-07-20T07:21:19;33.00;88.00
35746;DHT22;21870;42.812;74.628;2023-07-20T07:23:46;33.20;85.90
35746;DHT22;21870;42.812;74.628;2023-07-20T07:26:13;33.30;90.20
35746;DHT22;21870;42.812;74.628;2023-07-20T07:28:39;33.50;89.40
35746;DHT22;21870;42.812;74.628;2023-07-20T07:31:05;33.50;89.80
35746;DHT22;21870;42.812;74.628;2023-07-20T07:33:32;33.60;89.60
35746;DHT22;21870;42.812;74.628;2023-07-20T07:35:58;33.70;86.60
35746;DHT22;21870;42.812;74.628;2023-07-20T07:38:24;33.70;85.70
35746;DHT22;21870;42.812;74.628;2023-07-20T07:40:50;33.70;87.10
35746;DHT22;21870;42.812;74.628;2023-07-20T07:43:16;33.70;85.60
35746;DHT22;21870;42.812;74.628;2023-07-20T07:45:42;33.70;88.80
35746;DHT22;21870;42.812;74.628;2023-07-20T07:48:08;33.80;87.80
35746;DHT22;21870;42.812;74.628;2023-07-20T07:50:37;33.80;86.40
35746;DHT22;21870;42.812;74.628;2023-07-20T07:53:05;33.80;85.70
35746;DHT22;21870;42.812;74.628;2023-07-20T07:55:31;33.90;86.20
35746;DHT22;21870;42.812;74.628;2023-07-20T07:57:57;34.10;86.80
35746;DHT22;21870;42.812;74.628;2023-07-20T08:00:23;33.90;85.60
35746;DHT22;21870;42.812;74.628;2023-07-20T08:02:50;34.00;83.40
35746;DHT22;21870;42.812;74.628;2023-07-20T08:05:17;34.00;87.90
35746;DHT22;21870;42.812;74.628;2023-07-20T08:07:43;34.00;88.30
35746;DHT22;21870;42.812;74.628;2023-07-20T08:10:09;34.00;87.30
35746;DHT22;21870;42.812;74.628;2023-07-20T08:12:38;34.00;86.50
35746;DHT22;21870;42.812;74.628;2023-07-20T08:15:05;34.10;88.10
35746;DHT22;21870;42.812;74.628;2023-07-20T08:17:31;34.10;87.10
35746;DHT22;21870;42.812;74.628;2023-07-20T08:19:57;34.10;87.40
35746;DHT22;21870;42.812;74.628;2023-07-20T08:22:23;34.00;89.10
35746;DHT22;21870;42.812;74.628;2023-07-20T08:24:49;34.10;87.20
35746;DHT22;21870;42.812;74.628;2023-07-20T08:27:15;34.10;87.70
35746;DHT22;21870;42.812;74.628;2023-07-20T08:29:41;34.10;86.30
35746;DHT22;21870;42.812;74.628;2023-07-20T08:32:08;34.10;88.40
35746;DHT22;21870;42.812;74.628;2023-07-20T08:34:34;34.10;84.00
35746;DHT22;21870;42.812;74.628;2023-07-20T08:37:00;34.10;84.70
35746;DHT22;21870;42.812;74.628;2023-07-20T08:39:26;34.20;85.30
35746;DHT22;21870;42.812;74.628;2023-07-20T08:41:52;34.30;84.80
35746;DHT22;21870;42.812;74.628;2023-07-20T08:44:19;34.30;83.60
35746;DHT22;21870;42.812;74.628;2023-07-20T08:46:47;34.40;84.90
35746;DHT22;21870;42.812;74.628;2023-07-20T08:49:14;34.40;84.50
35746;DHT22;21870;42.812;74.628;2023-07-20T08:51:41;34.30;83.50
35746;DHT22;21870;42.812;74.628;2023-07-20T08:54:09;34.20;84.80
35746;DHT22;21870;42.812;74.628;2023-07-20T08:56:37;34.20;84.20
35746;DHT22;21870;42.812;74.628;2023-07-20T08:59:05;34.20;84.40
35746;DHT22;21870;42.812;74.628;2023-07-20T09:01:36;34.30;86.30
35746;DHT22;21870;42.812;74.628;2023-07-20T09:04:05;34.30;86.50
35746;DHT22;21870;42.812;74.628;2023-07-20T09:06:31;34.20;84.30
35746;DHT22;21870;42.812;74.628;2023-07-20T09:08:57;34.20;84.90
35746;DHT22;21870;42.812;74.628;2023-07-20T09:11:23;34.20;84.80
35746;DHT22;21870;42.812;74.628;2023-07-20T09:14:05;34.10;83.90
35746;DHT22;21870;42.812;74.628;2023-07-20T09:16:52;34.20;84.00
35746;DHT22;21870;42.812;74.628;2023-07-20T09:19:18;34.30;84.00
35746;DHT22;21870;42.812;74.628;2023-07-20T09:21:46;34.40;83.30
35746;DHT22;21870;42.812;74.628;2023-07-20T09:24:13;34.50;83.60
35746;DHT22;21870;42.812;74.628;2023-07-20T09:26:42;34.50;84.30
35746;DHT22;21870;42.812;74.628;2023-07-20T09:29:09;34.50;82.50
35746;DHT22;21870;42.812;74.628;2023-07-20T09:31:36;34.70;83.60
35746;DHT22;21870;42.812;74.628;2023-07-20T09:34:02;34.70;83.30
35746;DHT22;21870;42.812;74.628;2023-07-20T09:36:29;34.70;84.20
35746;DHT22;21870;42.812;74.628;2023-07-20T09:38:55;34.80;82.90
35746;DHT22;21870;42.812;74.628;2023-07-20T09:41:22;34.80;83.70
35746;DHT22;21870;42.812;74.628;2023-07-20T09:43:48;34.80;85.30
35746;DHT22;21870;42.812;74.628;2023-07-20T09:46:15;34.80;83.00
35746;DHT22;21870;42.812;74.628;2023-07-20T09:48:54;34.90;83.70
35746;DHT22;21870;42.812;74.628;2023-07-20T09:51:24;34.90;84.80
35746;DHT22;21870;42.812;74.628;2023-07-20T09:53:53;34.80;84.70
35746;DHT22;21870;42.812;74.628;2023-07-20T09:56:22;34.90;84.10
35746;DHT22;21870;42.812;74.628;2023-07-20T09:58:50;35.00;84.20
35746;DHT22;21870;42.812;74.628;2023-07-20T10:01:20;35.10;81.70
35746;DHT22;21870;42.812;74.628;2023-07-20T10:03:50;35.20;81.80
35746;DHT22;21870;42.812;74.628;2023-07-20T10:06:22;35.10;83.60
35746;DHT22;21870;42.812;74.628;2023-07-20T10:08:53;35.30;84.60
35746;DHT22;21870;42.812;74.628;2023-07-20T10:11:22;35.40;83.30
35746;DHT22;21870;42.812;74.628;2023-07-20T10:13:53;35.40;82.20
35746;DHT22;21870;42.812;74.628;2023-07-20T10:16:29;35.40;83.80
35746;DHT22;21870;42.812;74.628;2023-07-20T10:19:43;35.50;82.20
35746;DHT22;21870;42.812;74.628;2023-07-20T10:22:08;35.40;81.50
35746;DHT22;21870;42.812;74.628;2023-07-20T10:24:36;35.30;80.60
35746;DHT22;21870;42.812;74.628;2023-07-20T10:27:04;35.00;82.70
35746;DHT22;21870;42.812;74.628;2023-07-20T10:29:31;35.10;84.40
35746;DHT22;21870;42.812;74.628;2023-07-20T10:31:58;35.10;84.40
35746;DHT22;21870;42.812;74.628;2023-07-20T10:34:24;35.10;83.80
35746;DHT22;21870;42.812;74.628;2023-07-20T10:36:50;35.30;83.10
35746;DHT22;21870;42.812;74.628;2023-07-20T10:39:28;35.30;81.00
35746;DHT22;21870;42.812;74.628;2023-07-20T10:42:09;35.20;81.50
35746;DHT22;21870;42.812;74.628;2023-07-20T10:44:42;34.90;82.30
35746;DHT22;21870;42.812;74.628;2023-07-20T10:47:12;34.60;83.40
35746;DHT22;21870;42.812;74.628;2023-07-20T10:50:00;34.30;83.90
35746;DHT22;21870;42.812;74.628;2023-07-20T10:52:26;34.30;84.90
35746;DHT22;21870;42.812;74.628;2023-07-20T10:55:16;34.20;84.60
35746;DHT22;21870;42.812;74.628;2023-07-20T10:57:42;34.40;82.30
35746;DHT22;21870;42.812;74.628;2023-07-20T11:00:10;34.30;84.20
35746;DHT22;21870;42.812;74.628;2023-07-20T11:02:47;34.40;83.80
35746;DHT22;21870;42.812;74.628;2023-07-20T11:05:34;34.60;85.10
35746;DHT22;21870;42.812;74.628;2023-07-20T11:08:04;34.70;82.50
35746;DHT22;21870;42.812;74.628;2023-07-20T11:10:31;34.70;83.70
35746;DHT22;21870;42.812;74.628;2023-07-20T11:13:17;34.80;83.80
35746;DHT22;21870;42.812;74.628;2023-07-20T11:16:08;34.80;82.90
35746;DHT22;21870;42.812;74.628;2023-07-20T11:18:34;34.50;82.90
35746;DHT22;21870;42.812;74.628;2023-07-20T11:21:08;34.40;82.80
35746;DHT22;21870;42.812;74.628;2023-07-20T11:23:38;34.40;83.50
35746;DHT22;21870;42.812;74.628;2023-07-20T11:26:04;34.20;84.80
35746;DHT22;21870;42.812;74.628;2023-07-20T11:28:30;33.90;83.60
35746;DHT22;21870;42.812;74.628;2023-07-20T11:30:57;33.90;84.40
35746;DHT22;21870;42.812;74.628;2023-07-20T11:33:23;33.80;84.50
35746;DHT22;21870;42.812;74.628;2023-07-20T11:35:49;33.70;84.20
35746;DHT22;21870;42.812;74.628;2023-07-20T11:38:16;33.70;84.60
35746;DHT22;21870;42.812;74.628;2023-07-20T11:40:46;33.60;83.10
35746;DHT22;21870;42.812;74.628;2023-07-20T11:43:13;33.50;84.50
35746;DHT22;21870;42.812;74.628;2023-07-20T11:45:40;33.50;84.10
35746;DHT22;21870;42.812;74.628;2023-07-20T11:48:06;33.40;84.20
35746;DHT22;21870;42.812;74.628;2023-07-20T11:50:32;33.40;85.60
35746;DHT22;21870;42.812;74.628;2023-07-20T11:53:04;33.40;84.00
35746;DHT22;21870;42.812;74.628;2023-07-20T11:55:30;33.40;83.70
35746;DHT22;21870;42.812;74.628;2023-07-20T11:58:07;33.30;83.70
35746;DHT22;21870;42.812;74.628;2023-07-20T12:00:35;33.20;84.50
35746;DHT22;21870;42.812;74.628;2023-07-20T12:03:01;33.20;85.40
35746;DHT22;21870;42.812;74.628;2023-07-20T12:05:27;33.30;86.40
35746;DHT22;21870;42.812;74.628;2023-07-20T12:07:54;33.30;85.30
35746;DHT22;21870;42.812;74.628;2023-07-20T12:10:25;33.20;86.50
35746;DHT22;21870;42.812;74.628;2023-07-20T12:12:52;33.10;85.40
35746;DHT22;21870;42.812;74.628;2023-07-20T12:15:25;33.10;85.90
35746;DHT22;21870;42.812;74.628;2023-07-20T12:18:01;33.00;87.60
35746;DHT22;21870;42.812;74.628;2023-07-20T12:23:03;32.80;87.00
35746;DHT22;21870;42.812;74.628;2023-07-20T12:28:01;32.50;87.60
35746;DHT22;21870;42.812;74.628;2023-07-20T12:30:28;32.50;87.20
35746;DHT22;21870;42.812;74.628;2023-07-20T12:32:55;32.40;88.80
35746;DHT22;21870;42.812;74.628;2023-07-20T12:35:21;32.30;88.70
35746;DHT22;21870;42.812;74.628;2023-07-20T12:37:47;32.20;88.10
35746;DHT22;21870;42.812;74.628;2023-07-20T12:40:15;32.20;88.70
35746;DHT22;21870;42.812;74.628;2023-07-20T12:42:41;32.20;88.20
35746;DHT22;21870;42.812;74.628;2023-07-20T12:45:08;32.10;89.60
35746;DHT22;21870;42.812;74.628;2023-07-20T12:47:34;32.00;89.50
35746;DHT22;21870;42.812;74.628;2023-07-20T12:50:00;32.00;88.50
35746;DHT22;21870;42.812;74.628;2023-07-20T12:52:26;32.00;88.80
35746;DHT22;21870;42.812;74.628;2023-07-20T12:54:52;32.00;88.60
35746;DHT22;21870;42.812;74.628;2023-07-20T12:57:18;31.90;89.10
35746;DHT22;21870;42.812;74.628;2023-07-20T12:59:44;31.80;89.00
35746;DHT22;21870;42.812;74.628;2023-07-20T13:02:10;31.80;89.40
35746;DHT22;21870;42.812;74.628;2023-07-20T13:04:36;31.80;88.20
35746;DHT22;21870;42.812;74.628;2023-07-20T13:07:02;31.80;88.50
35746;DHT22;21870;42.812;74.628;2023-07-20T13:09:29;31.80;90.00
35746;DHT22;21870;42.812;74.628;2023-07-20T13:11:55;31.80;88.40
35746;DHT22;21870;42.812;74.628;2023-07-20T13:14:22;31.70;89.00
35746;DHT22;21870;42.812;74.628;2023-07-20T13:16:49;31.60;89.70
35746;DHT22;21870;42.812;74.628;2023-07-20T13:19:15;31.60;88.40
35746;DHT22;21870;42.812;74.628;2023-07-20T13:21:41;31.50;89.00
35746;DHT22;21870;42.812;74.628;2023-07-20T13:24:08;31.50;88.80
35746;DHT22;21870;42.812;74.628;2023-07-20T13:26:34;31.50;88.40
35746;DHT22;21870;42.812;74.628;2023-07-20T13:29:00;31.50;88.60
35746;DHT22;21870;42.812;74.628;2023-07-20T13:31:27;31.40;88.80
35746;DHT22;21870;42.812;74.628;2023-07-20T13:33:55;31.40;89.20
35746;DHT22;21870;42.812;74.628;2023-07-20T13:36:22;31.40;89.90
35746;DHT22;21870;42.812;74.628;2023-07-20T13:38:48;31.30;89.40
35746;DHT22;21870;42.812;74.628;2023-07-20T13:41:14;31.30;89.00
35746;DHT22;21870;42.812;74.628;2023-07-20T13:43:42;31.30;89.60
35746;DHT22;21870;42.812;74.628;2023-07-20T13:46:08;31.20;89.50
35746;DHT22;21870;42.812;74.628;2023-07-20T13:48:34;31.10;90.30
35746;DHT22;21870;42.812;74.628;2023-07-20T13:51:00;31.10;90.20
35746;DHT22;21870;42.812;74.628;2023-07-20T13:53:26;31.00;90.00
35746;DHT22;21870;42.812;74.628;2023-07-20T13:55:53;31.00;90.40
35746;DHT22;21870;42.812;74.628;2023-07-20T13:58:19;30.90;90.10
35746;DHT22;21870;42.812;74.628;2023-07-20T14:00:45;30.90;90.10
35746;DHT22;21870;42.812;74.628;2023-07-20T14:03:12;30.90;90.10
35746;DHT22;21870;42.812;74.628;2023-07-20T14:05:38;30.80;90.20
35746;DHT22;21870;42.812;74.628;2023-07-20T14:08:04;30.80;90.10
35746;DHT22;21870;42.812;74.628;2023-07-20T14:10:31;30.80;90.10
35746;DHT22;21870;42.812;74.628;2023-07-20T14:12:57;30.70;90.50
35746;DHT22;21870;42.812;74.628;2023-07-20T14:15:23;30.60;90.90
35746;DHT22;21870;42.812;74.628;2023-07-20T14:17:49;30.50;90.70
35746;DHT22;21870;42.812;74.628;2023-07-20T14:20:15;30.50;90.60
35746;DHT22;21870;42.812;74.628;2023-07-20T14:22:41;30.50;90.50
35746;DHT22;21870;42.812;74.628;2023-07-20T14:25:07;30.40;90.60
35746;DHT22;21870;42.812;74.628;2023-07-20T14:27:34;30.30;91.30
35746;DHT22;21870;42.812;74.628;2023-07-20T14:30:00;30.20;91.50
35746;DHT22;21870;42.812;74.628;2023-07-20T14:32:26;30.10;91.70
35746;DHT22;21870;42.812;74.628;2023-07-20T14:34:52;30.10;92.10
35746;DHT22;21870;42.812;74.628;2023-07-20T14:37:18;30.00;92.70
35746;DHT22;21870;42.812;74.628;2023-07-20T14:39:44;30.00;92.50
35746;DHT22;21870;42.812;74.628;2023-07-20T14:42:10;30.00;91.50
35746;DHT22;21870;42.812;74.628;2023-07-20T14:44:37;29.90;91.40
35746;DHT22;21870;42.812;74.628;2023-07-20T14:47:03;29.90;91.50
35746;DHT22;21870;42.812;74.628;2023-07-20T14:49:29;29.80;91.60
35746;DHT22;21870;42.812;74.628;2023-07-20T14:51:55;29.80;91.70
35746;DHT22;21870;42.812;74.628;2023-07-20T14:54:21;29.70;91.60
35746;DHT22;21870;42.812;74.628;2023-07-20T14:56:51;29.60;92.20
35746;DHT22;21870;42.812;74.628;2023-07-20T14:59:20;29.60;91.90
35746;DHT22;21870;42.812;74.628;2023-07-20T15:01:46;29.50;91.90
35746;DHT22;21870;42.812;74.628;2023-07-20T15:04:13;29.40;92.00
35746;DHT22;21870;42.812;74.628;2023-07-20T15:06:40;29.30;92.20
35746;DHT22;21870;42.812;74.628;2023-07-20T15:09:06;29.20;92.20
35746;DHT22;21870;42.812;74.628;2023-07-20T15:11:33;29.20;92.30
35746;DHT22;21870;42.812;74.628;2023-07-20T15:14:00;29.10;92.40
35746;DHT22;21870;42.812;74.628;2023-07-20T15:16:27;29.10;92.60
35746;DHT22;21870;42.812;74.628;2023-07-20T15:18:53;29.00;92.70
35746;DHT22;21870;42.812;74.628;2023-07-20T15:21:19;29.00;93.00
35746;DHT22;21870;42.812;74.628;2023-07-20T15:23:45;28.90;93.20
35746;DHT22;21870;42.812;74.628;2023-07-20T15:26:12;28.80;93.70
35746;DHT22;21870;42.812;74.628;2023-07-20T15:28:39;28.70;93.90
35746;DHT22;21870;42.812;74.628;2023-07-20T15:31:05;28.70;94.10
35746;DHT22;21870;42.812;74.628;2023-07-20T15:33:32;28.60;94.20
35746;DHT22;21870;42.812;74.628;2023-07-20T15:35:58;28.50;94.40